Stewart, Virginia
Current Conditions -  °F | °C
As of 4:54 AM on Saturday 20 Dec 2014 (Local Time) from KRIC Reporting Station
Overcast Overcast  
Wind Chill: 24°   Ceiling: 18000
Heat Index: 30°   Visibility: 10mi
Dew Point: 22°   Wind: 6mph
Humidity: 72%   Direction: 20°NNE
Pressure: 30.25"   Gusts: NA
Location:  37.5541°N, 77.4914°W
Report Text: KRIC 200954Z 02005KT 10SM OVC180 M01/M06 A3025 RMK AO2 SLP250 T10111056
Loading
Personal Weather Stations






























Interactive Weather Map New forecast layout! Learn more

10-Day Weather Forecast

Advertisements
Track Severe Weather on mobile